Time;durP1;ratioP1;P1;durP2;ratioP2;P2;SDS_P1;SDS_P2;PMS_P1;PMS_P2;Temp;Humidity;BMP_temperature;BMP_pressure;BME280_temperature;BME280_humidity;BME280_pressure;Samples;Min_cycle;Max_cycle;Signal;HPM_P1;HPM_P2
2022/05/22 00:00:16;;;;;;;10.40;9.60;;;;;;;19.85;60.25;92601.56;5029322;28;20225;-78
2022/05/22 00:02:42;;;;;;;10.73;10.03;;;;;;;20.13;59.92;92639.53;5029522;28;20290;-79
2022/05/22 00:05:11;;;;;;;11.20;10.40;;;;;;;20.14;59.87;92637.66;5027361;28;20213;-78
2022/05/22 00:07:36;;;;;;;10.47;9.77;;;;;;;19.94;59.52;92626.06;5029080;28;20181;-78
2022/05/22 00:10:03;;;;;;;10.37;9.47;;;;;;;20.04;59.56;92635.44;5028045;28;20188;-78
2022/05/22 00:12:28;;;;;;;9.20;8.60;;;;;;;19.94;58.79;92626.06;5028203;28;20204;-79
2022/05/22 00:14:53;;;;;;;11.03;10.10;;;;;;;19.98;59.40;92636.78;5027447;28;20244;-76
2022/05/22 00:17:19;;;;;;;10.37;9.67;;;;;;;19.90;59.42;92630.50;5029512;28;20287;-78
2022/05/22 00:19:45;;;;;;;10.80;9.97;;;;;;;19.89;59.54;92636.88;5029306;28;20486;-78
2022/05/22 00:22:10;;;;;;;10.63;9.73;;;;;;;19.97;58.89;92636.00;5028678;28;20237;-78
2022/05/22 00:24:36;;;;;;;9.83;9.23;;;;;;;19.88;58.79;92616.03;5028413;28;20199;-78
2022/05/22 00:27:03;;;;;;;10.83;9.77;;;;;;;19.84;58.84;92621.25;5028681;28;20234;-78
2022/05/22 00:29:30;;;;;;;10.20;9.37;;;;;;;19.88;58.81;92624.75;5028629;28;20196;-80
2022/05/22 00:31:56;;;;;;;9.73;9.03;;;;;;;19.94;58.22;92622.63;5030503;28;20236;-79
2022/05/22 00:34:21;;;;;;;9.37;8.70;;;;;;;19.92;58.28;92611.63;5033058;28;20192;-77
2022/05/22 00:36:47;;;;;;;10.30;9.67;;;;;;;19.93;57.95;92608.63;5032824;28;20236;-78
2022/05/22 00:39:12;;;;;;;9.70;9.10;;;;;;;19.96;57.92;92620.44;5032568;28;20192;-78
2022/05/22 00:41:39;;;;;;;10.10;9.40;;;;;;;19.98;57.76;92626.94;5032736;28;20260;-78
2022/05/22 00:44:07;;;;;;;8.37;7.97;;;;;;;20.07;57.37;92627.59;5032914;28;20219;-79
2022/05/22 00:46:33;;;;;;;10.47;9.87;;;;;;;20.03;57.49;92626.69;5031407;28;20233;-80
2022/05/22 00:49:06;;;;;;;9.20;8.70;;;;;;;19.95;57.59;92627.63;5032733;28;20200;-78
2022/05/22 00:51:55;;;;;;;9.27;8.70;;;;;;;20.04;57.35;92635.44;5030611;28;20236;-77
2022/05/22 00:54:36;;;;;;;10.43;9.63;;;;;;;20.00;57.69;92627.38;5056162;28;20219;-78
2022/05/22 00:57:10;;;;;;;9.03;8.57;;;;;;;19.94;57.55;92620.75;5032479;28;20230;-78
2022/05/22 00:59:46;;;;;;;11.60;10.70;;;;;;;19.87;58.35;92619.78;5031945;28;20196;-78
2022/05/22 01:02:15;;;;;;;10.33;9.63;;;;;;;19.72;58.53;92623.88;5030461;28;20231;-78
2022/05/22 01:04:45;;;;;;;10.47;9.80;;;;;;;19.59;58.26;92617.09;5031537;28;20200;-79
2022/05/22 01:07:12;;;;;;;9.47;8.77;;;;;;;19.66;58.29;92624.47;5031223;28;20231;-78
2022/05/22 01:09:38;;;;;;;10.83;10.13;;;;;;;19.65;57.75;92622.91;5031751;28;20267;-78
2022/05/22 01:12:08;;;;;;;10.13;9.43;;;;;;;19.67;56.53;92615.41;5028834;28;20220;-79
2022/05/22 01:14:34;;;;;;;9.40;8.90;;;;;;;19.64;55.88;92616.88;5031987;28;20200;-78
2022/05/22 01:17:05;;;;;;;9.80;9.13;;;;;;;19.76;54.59;92614.19;5030994;28;20236;-80
2022/05/22 01:19:31;;;;;;;11.30;10.27;;;;;;;19.62;54.35;92607.69;5030675;28;20219;-78
2022/05/22 01:21:58;;;;;;;10.53;9.67;;;;;;;19.60;54.21;92615.97;5030706;28;20907;-78
2022/05/22 01:24:24;;;;;;;9.47;8.97;;;;;;;19.53;53.96;92615.78;5030979;28;20219;-79
2022/05/22 01:26:49;;;;;;;9.97;9.37;;;;;;;19.51;53.31;92612.66;5031411;28;20229;-78
2022/05/22 01:29:16;;;;;;;9.40;8.83;;;;;;;19.60;51.41;92609.88;5029765;28;20188;-79
2022/05/22 01:31:41;;;;;;;9.27;8.67;;;;;;;19.65;50.62;92612.31;5029683;28;20239;-78
2022/05/22 01:34:07;;;;;;;9.10;8.50;;;;;;;19.69;51.28;92616.63;5030315;28;20180;-77
2022/05/22 01:36:33;;;;;;;10.40;9.50;;;;;;;19.52;49.57;92602.88;5029182;28;20214;-78
2022/05/22 01:38:58;;;;;;;9.00;8.40;;;;;;;19.54;49.19;92605.94;5030300;28;20211;-78
2022/05/22 01:41:24;;;;;;;8.73;8.27;;;;;;;19.53;48.61;92599.09;5030892;28;20231;-78
2022/05/22 01:43:49;;;;;;;8.40;7.90;;;;;;;19.62;45.16;92619.06;5029811;28;20224;-78
2022/05/22 01:46:15;;;;;;;7.63;7.23;;;;;;;19.57;45.81;92611.34;5031533;28;20227;-78
2022/05/22 01:48:41;;;;;;;9.30;8.43;;;;;;;19.59;43.68;92608.34;5031745;28;20192;-79
2022/05/22 01:51:06;;;;;;;8.40;8.00;;;;;;;19.69;44.55;92619.25;5031643;28;20224;-78
2022/05/22 01:53:32;;;;;;;8.73;8.23;;;;;;;19.62;41.43;92613.75;5031259;28;20280;-77
2022/05/22 01:55:58;;;;;;;8.07;7.67;;;;;;;19.62;40.68;92616.41;5031370;28;20220;-76
2022/05/22 01:58:24;;;;;;;7.77;7.37;;;;;;;19.54;40.65;92609.34;5031571;28;20258;-76
2022/05/22 02:00:50;;;;;;;7.87;7.47;;;;;;;19.55;40.97;92613.53;5031008;28;20239;-76
2022/05/22 02:03:15;;;;;;;8.03;7.63;;;;;;;19.58;40.12;92626.13;5031911;28;20215;-76
2022/05/22 02:05:43;;;;;;;8.73;8.23;;;;;;;19.49;40.16;92625.47;5029347;28;20238;-76
2022/05/22 02:08:24;;;;;;;9.70;8.07;;;;;;;19.39;41.08;92625.94;5031872;28;21200;-76
2022/05/22 02:10:55;;;;;;;7.50;7.10;;;;;;;19.37;41.00;92625.47;5030906;28;20247;-76
2022/05/22 02:13:22;;;;;;;7.30;7.00;;;;;;;19.23;41.38;92619.72;5030379;28;20199;-76
2022/05/22 02:15:50;;;;;;;7.03;6.73;;;;;;;19.23;39.76;92618.94;5029717;28;20224;-76
2022/05/22 02:18:15;;;;;;;8.17;7.70;;;;;;;19.27;39.05;92610.00;5031529;28;20203;-76
2022/05/22 02:20:41;;;;;;;8.10;7.70;;;;;;;19.33;38.92;92627.22;5045165;28;20229;-76
2022/05/22 02:23:06;;;;;;;7.77;7.43;;;;;;;19.30;39.20;92627.91;5031124;28;20223;-76
2022/05/22 02:25:35;;;;;;;8.03;7.53;;;;;;;19.28;38.54;92624.81;5029158;28;20532;-76
2022/05/22 02:28:02;;;;;;;7.60;7.27;;;;;;;19.22;38.19;92620.81;5030668;28;20215;-76
2022/05/22 02:30:30;;;;;;;7.23;6.83;;;;;;;19.23;38.73;92625.00;5027841;28;20228;-76
2022/05/22 02:32:56;;;;;;;8.27;7.67;;;;;;;19.21;37.33;92624.56;5030955;28;20201;-76
2022/05/22 02:35:22;;;;;;;8.17;7.77;;;;;;;19.26;37.32;92628.84;5030106;28;20314;-76
2022/05/22 02:37:50;;;;;;;8.10;7.70;;;;;;;19.19;37.31;92621.50;5031063;28;20216;-76
2022/05/22 02:40:18;;;;;;;7.30;7.00;;;;;;;19.28;37.53;92622.19;5029174;28;20257;-76
2022/05/22 02:42:47;;;;;;;7.50;7.13;;;;;;;19.17;36.62;92610.44;5030178;28;20208;-76
2022/05/22 02:45:15;;;;;;;8.37;7.97;;;;;;;19.28;36.47;92624.81;5030114;28;20811;-77
2022/05/22 02:47:41;;;;;;;7.37;7.07;;;;;;;19.37;37.31;92637.94;5030274;28;20207;-76
2022/05/22 02:50:08;;;;;;;7.90;7.60;;;;;;;19.30;37.13;92633.19;5030075;28;20203;-76
2022/05/22 02:52:34;;;;;;;7.50;7.20;;;;;;;19.18;36.57;92619.94;5030226;28;20207;-76
2022/05/22 02:55:00;;;;;;;8.70;8.30;;;;;;;19.25;36.03;92629.97;5025876;28;20228;-76
2022/05/22 02:57:26;;;;;;;8.93;8.43;;;;;;;19.17;36.12;92623.69;5028150;28;20192;-76
2022/05/22 02:59:54;;;;;;;8.20;7.77;;;;;;;19.23;36.41;92643.53;5030185;28;20201;-76
2022/05/22 03:02:19;;;;;;;7.93;7.57;;;;;;;19.24;36.24;92634.47;5029646;28;20239;-76
2022/05/22 03:04:47;;;;;;;7.93;7.27;;;;;;;19.21;36.14;92642.34;5029473;28;20196;-76
2022/05/22 03:07:15;;;;;;;8.13;7.73;;;;;;;19.25;34.95;92641.34;5028249;28;20254;-77
2022/05/22 03:09:42;;;;;;;7.13;6.83;;;;;;;19.16;35.30;92638.78;5029983;28;20206;-77
2022/05/22 03:12:17;;;;;;;7.37;7.03;;;;;;;19.23;33.88;92643.53;5050298;28;20244;-77
2022/05/22 03:14:54;;;;;;;8.07;7.77;;;;;;;19.23;34.13;92656.78;5029241;28;20191;-77
2022/05/22 03:17:21;;;;;;;8.57;8.17;;;;;;;19.25;33.57;92648.50;5029905;28;20272;-77
2022/05/22 03:19:46;;;;;;;8.13;7.73;;;;;;;19.31;32.99;92653.28;5029615;28;20218;-77
2022/05/22 03:22:13;;;;;;;7.53;7.23;;;;;;;19.32;32.80;92657.47;5029712;28;20252;-77
2022/05/22 03:24:39;;;;;;;8.83;8.23;;;;;;;19.18;31.78;92639.22;5028947;28;20238;-77
2022/05/22 03:27:10;;;;;;;7.70;7.40;;;;;;;19.42;31.63;92662.34;5029272;28;20262;-77
2022/05/22 03:29:36;;;;;;;7.57;7.17;;;;;;;19.55;30.78;92655.91;5029383;28;20188;-76
2022/05/22 03:32:02;;;;;;;7.40;7.10;;;;;;;19.62;31.61;92660.66;5029235;28;20230;-77
2022/05/22 03:34:28;;;;;;;8.90;8.40;;;;;;;19.46;31.96;92636.72;5029650;28;20816;-77
2022/05/22 03:36:53;;;;;;;7.73;7.33;;;;;;;19.52;31.36;92640.69;5027895;28;20239;-77
2022/05/22 03:39:19;;;;;;;7.80;7.50;;;;;;;19.49;31.22;92640.56;5028922;28;20640;-77
2022/05/22 03:41:45;;;;;;;7.13;6.83;;;;;;;19.62;32.48;92644.78;5027563;28;20221;-76
2022/05/22 03:44:10;;;;;;;7.13;6.83;;;;;;;19.73;30.82;92667.84;5029926;28;20219;-77
2022/05/22 03:46:36;;;;;;;7.27;6.97;;;;;;;19.71;30.92;92664.75;5029337;28;20291;-77
2022/05/22 03:49:01;;;;;;;7.70;7.20;;;;;;;19.83;30.77;92667.38;5028684;28;20189;-78
2022/05/22 03:51:27;;;;;;;8.20;7.70;;;;;;;19.93;30.38;92672.22;5028927;28;20227;-78
2022/05/22 03:53:53;;;;;;;7.17;6.67;;;;;;;20.00;30.61;92680.38;5028947;28;20184;-78
2022/05/22 03:56:19;;;;;;;9.00;8.47;;;;;;;20.14;31.63;92672.88;5028803;28;20241;-77
2022/05/22 03:58:46;;;;;;;7.10;6.80;;;;;;;20.11;31.08;92678.81;5028716;28;20212;-77
2022/05/22 04:01:11;;;;;;;7.30;7.00;;;;;;;20.21;31.68;92667.78;5026817;28;20236;-77
2022/05/22 04:03:40;;;;;;;8.47;8.07;;;;;;;20.25;33.30;92673.94;5027562;28;20287;-77
2022/05/22 04:06:08;;;;;;;8.30;7.80;;;;;;;20.13;32.52;92670.53;5026744;28;20247;-77
2022/05/22 04:08:34;;;;;;;8.77;8.20;;;;;;;20.17;32.21;92666.91;5028121;28;20208;-77
2022/05/22 04:11:12;;;;;;;7.57;7.17;;;;;;;20.34;33.29;92671.94;5028862;28;20233;-77
2022/05/22 04:13:38;;;;;;;7.83;7.50;;;;;;;20.28;33.18;92667.97;5029228;28;20192;-77
2022/05/22 04:16:04;;;;;;;7.80;7.40;;;;;;;20.12;33.35;92647.78;5029095;28;20260;-76
2022/05/22 04:18:29;;;;;;;8.67;8.23;;;;;;;20.46;34.11;92666.59;5028334;28;20191;-76
2022/05/22 04:20:55;;;;;;;7.40;7.00;;;;;;;20.36;34.08;92669.72;5028669;28;20229;-76
2022/05/22 04:26:05;;;;;;;8.50;8.10;;;;;;;20.51;35.85;92666.34;5028514;28;20243;-76
2022/05/22 04:28:31;;;;;;;8.20;7.80;;;;;;;20.57;35.01;92674.84;5028706;28;20176;-77
2022/05/22 04:30:57;;;;;;;7.33;7.03;;;;;;;20.67;35.35;92674.34;5029247;28;20245;-76
2022/05/22 04:33:23;;;;;;;7.53;7.13;;;;;;;20.52;35.97;92662.59;5028419;28;20189;-77
2022/05/22 04:35:49;;;;;;;6.63;6.33;;;;;;;20.45;36.13;92667.69;5028842;28;20219;-77
2022/05/22 04:38:16;;;;;;;7.10;6.80;;;;;;;20.22;36.27;92681.78;5028960;28;20217;-77
2022/05/22 04:40:41;;;;;;;7.95;7.55;;;;;;;20.42;36.69;92676.31;5027958;28;20225;-76
2022/05/22 04:43:09;;;;;;;7.47;7.17;;;;;;;20.09;40.38;92680.25;5027627;28;20225;-77
2022/05/22 04:45:38;;;;;;;8.50;7.90;;;;;;;20.33;38.96;92678.34;5024701;28;20224;-77
2022/05/22 04:48:04;;;;;;;7.47;7.10;;;;;;;20.14;38.93;92675.53;5027669;28;20198;-77
2022/05/22 04:50:30;;;;;;;6.80;6.50;;;;;;;20.08;38.15;92674.19;5026146;28;20239;-77
2022/05/22 04:52:56;;;;;;;7.60;7.30;;;;;;;20.29;37.93;92684.66;5028437;28;20194;-77
2022/05/22 04:55:21;;;;;;;7.63;7.33;;;;;;;20.27;38.18;92692.94;5028123;28;20289;-80
2022/05/22 04:57:47;;;;;;;7.85;7.47;;;;;;;20.23;38.24;92689.41;5027258;28;20185;-81
2022/05/22 05:00:13;;;;;;;7.90;7.50;;;;;;;20.09;38.48;92689.00;5025756;28;20201;-85
2022/05/22 05:02:38;;;;;;;7.87;7.47;;;;;;;20.21;37.92;92689.00;5027677;28;22169;-77
2022/05/22 05:05:11;;;;;;;8.10;7.70;;;;;;;20.21;38.47;92686.34;5024619;28;20202;-77
2022/05/22 05:07:41;;;;;;;7.77;7.37;;;;;;;20.54;37.72;92681.63;5025312;28;20283;-76
2022/05/22 05:10:09;;;;;;;7.70;7.37;;;;;;;20.96;37.16;92686.53;5025052;28;20196;-76
2022/05/22 05:12:36;;;;;;;9.07;8.48;;;;;;;21.49;36.98;92691.28;5023914;28;20210;-76
2022/05/22 05:15:03;;;;;;;8.10;7.70;;;;;;;21.39;36.87;92692.56;5024912;28;20196;-78
2022/05/22 05:17:28;;;;;;;9.10;8.60;;;;;;;21.21;36.97;92687.94;5026616;28;20186;-77
2022/05/22 05:19:54;;;;;;;8.80;8.30;;;;;;;21.27;36.73;92687.34;5029307;28;20198;-76
2022/05/22 05:22:19;;;;;;;8.57;8.13;;;;;;;21.40;36.26;92674.75;5028777;28;20198;-77
2022/05/22 05:24:45;;;;;;;8.15;7.75;;;;;;;20.92;37.45;92689.06;5029686;28;20207;-77
2022/05/22 05:27:10;;;;;;;7.53;7.13;;;;;;;21.22;37.83;92681.50;5028048;28;20228;-76
2022/05/22 05:29:36;;;;;;;7.95;7.55;;;;;;;21.35;37.91;92682.97;5031240;28;20208;-76
2022/05/22 05:32:01;;;;;;;7.00;6.70;;;;;;;21.38;38.63;92690.25;5029591;28;20230;-77
2022/05/22 05:34:27;;;;;;;7.70;7.30;;;;;;;21.28;38.01;92688.09;5031038;28;20192;-77
2022/05/22 05:36:52;;;;;;;7.70;7.40;;;;;;;21.29;38.80;92681.69;5029961;28;20734;-76
2022/05/22 05:39:17;;;;;;;8.65;8.13;;;;;;;20.96;35.96;92689.19;5030069;28;20198;-77
2022/05/22 05:41:44;;;;;;;7.65;7.25;;;;;;;20.96;37.98;92686.53;5057488;28;20218;-76
2022/05/22 05:44:09;;;;;;;8.10;7.70;;;;;;;20.89;37.55;92667.75;5031003;28;20216;-77
2022/05/22 05:46:36;;;;;;;7.75;7.45;;;;;;;20.92;38.68;92683.75;5029883;28;20253;-77
2022/05/22 05:49:03;;;;;;;7.63;7.32;;;;;;;21.06;38.80;92697.41;5030411;28;21058;-76
2022/05/22 05:51:28;;;;;;;7.47;7.13;;;;;;;21.05;39.21;92689.78;5027525;28;20230;-77
2022/05/22 05:53:54;;;;;;;7.50;7.20;;;;;;;20.97;38.13;92688.06;5029369;28;20204;-76
2022/05/22 05:56:20;;;;;;;7.60;7.20;;;;;;;20.96;37.80;92682.00;5030010;28;20232;-76
2022/05/22 05:58:46;;;;;;;7.72;7.22;;;;;;;21.02;36.69;92679.84;5029393;28;20185;-76
2022/05/22 06:01:13;;;;;;;8.15;7.78;;;;;;;21.00;39.60;92698.78;5028973;28;20244;-76
2022/05/22 06:03:39;;;;;;;9.00;8.50;;;;;;;21.30;38.45;92684.00;5028859;28;20213;-77
2022/05/22 06:06:09;;;;;;;7.82;7.50;;;;;;;20.86;36.45;92700.28;5029620;28;20232;-77
2022/05/22 06:08:36;;;;;;;8.43;7.95;;;;;;;20.53;37.07;92706.56;5030223;28;20217;-76
2022/05/22 06:11:01;;;;;;;7.80;7.47;;;;;;;20.52;39.50;92698.94;5029581;28;20233;-77
2022/05/22 06:13:26;;;;;;;8.30;7.80;;;;;;;20.88;36.23;92695.38;5029693;28;20212;-78
2022/05/22 06:15:52;;;;;;;8.75;8.20;;;;;;;21.14;37.87;92708.97;5028956;28;20495;-76
2022/05/22 06:18:21;;;;;;;8.18;7.57;;;;;;;21.01;37.01;92710.19;5029268;28;20192;-77
2022/05/22 06:20:47;;;;;;;8.10;7.38;;;;;;;21.06;36.89;92697.41;5029595;28;20240;-76
2022/05/22 06:23:13;;;;;;;7.75;7.28;;;;;;;21.43;38.00;92698.72;5054036;28;20283;-79
2022/05/22 06:25:44;;;;;;;8.30;7.78;;;;;;;21.10;36.34;92702.81;5029371;28;20252;-76
2022/05/22 06:28:11;;;;;;;8.13;7.72;;;;;;;20.65;37.24;92685.28;5029223;28;20210;-77
2022/05/22 06:30:36;;;;;;;8.02;7.55;;;;;;;20.69;37.29;92688.06;5028540;28;20253;-77
2022/05/22 06:33:10;;;;;;;7.50;7.20;;;;;;;21.11;37.26;92691.06;5029905;28;20205;-76
2022/05/22 06:35:39;;;;;;;8.18;7.78;;;;;;;21.21;38.33;92703.88;5027542;28;20236;-76
2022/05/22 06:38:06;;;;;;;7.75;7.45;;;;;;;20.98;35.92;92685.06;5029579;28;20196;-79
2022/05/22 06:40:31;;;;;;;9.07;8.57;;;;;;;20.80;37.70;92677.72;5028799;28;20241;-76
2022/05/22 06:43:01;;;;;;;9.07;8.45;;;;;;;21.02;38.34;92696.56;5028309;28;20205;-76
2022/05/22 06:45:27;;;;;;;7.75;7.35;;;;;;;21.22;37.69;92700.09;5027560;28;20288;-76
2022/05/22 06:47:52;;;;;;;7.82;7.53;;;;;;;21.07;37.60;92700.84;5029327;28;20200;-75
2022/05/22 06:50:22;;;;;;;8.77;8.27;;;;;;;21.53;37.58;92702.75;5027472;28;21200;-76
2022/05/22 06:52:47;;;;;;;9.00;8.40;;;;;;;21.98;37.57;92701.22;5027088;28;20254;-76
2022/05/22 06:55:13;;;;;;;8.43;7.88;;;;;;;22.16;37.52;92691.72;5026357;28;20230;-76
2022/05/22 06:57:40;;;;;;;7.88;7.50;;;;;;;21.80;36.10;92670.81;5028674;28;20197;-76
2022/05/22 07:00:10;;;;;;;7.75;7.22;;;;;;;22.27;37.30;92696.53;5028456;28;20281;-76
2022/05/22 07:02:36;;;;;;;8.20;7.80;;;;;;;22.42;38.72;92699.13;5027981;28;20235;-79
2022/05/22 07:05:03;;;;;;;7.50;7.20;;;;;;;22.14;37.59;92695.88;5028767;28;20192;-76
2022/05/22 07:07:29;;;;;;;8.85;8.15;;;;;;;22.84;36.36;92699.25;5029051;28;20218;-77
2022/05/22 07:09:55;;;;;;;8.07;7.57;;;;;;;22.69;36.71;92692.09;5027664;28;20187;-76
2022/05/22 07:12:21;;;;;;;7.60;7.30;;;;;;;22.52;35.69;92689.84;5028842;28;20201;-76
2022/05/22 07:14:48;;;;;;;7.95;7.55;;;;;;;22.71;35.66;92677.31;5028677;28;20231;-75
2022/05/22 07:17:15;;;;;;;7.97;7.57;;;;;;;22.70;35.44;92665.13;5028161;28;20238;-75
2022/05/22 07:19:44;;;;;;;8.73;8.13;;;;;;;22.58;34.83;92680.47;5028285;28;20288;-76
2022/05/22 07:22:10;;;;;;;7.72;7.32;;;;;;;22.84;35.71;92686.69;5027168;28;20222;-76
2022/05/22 07:24:36;;;;;;;8.95;8.38;;;;;;;23.35;35.41;92679.28;5027480;28;20220;-75
2022/05/22 07:27:02;;;;;;;7.63;7.28;;;;;;;23.97;34.53;92675.34;5028678;28;20229;-76
2022/05/22 07:29:28;;;;;;;8.02;7.63;;;;;;;23.05;34.11;92686.34;5028037;28;20193;-77
2022/05/22 07:31:54;;;;;;;7.97;7.43;;;;;;;22.48;34.48;92684.44;5027394;28;20232;-77
2022/05/22 07:34:21;;;;;;;6.95;6.65;;;;;;;22.39;35.21;92651.16;5029029;28;20180;-79
2022/05/22 07:36:46;;;;;;;9.13;8.48;;;;;;;22.69;34.58;92676.91;5028809;28;20220;-80
2022/05/22 07:39:12;;;;;;;8.77;8.27;;;;;;;22.98;35.03;92676.31;5028416;28;20223;-78
2022/05/22 07:41:38;;;;;;;9.52;8.80;;;;;;;22.90;34.47;92650.69;5025969;28;20234;-78
2022/05/22 07:44:04;;;;;;;8.02;7.63;;;;;;;22.54;35.49;92664.44;5026933;28;20225;-79
2022/05/22 07:46:29;;;;;;;8.55;8.07;;;;;;;22.90;33.86;92671.97;5029048;28;20243;-79
2022/05/22 07:48:55;;;;;;;8.07;7.68;;;;;;;22.24;35.36;92690.03;5054877;28;20204;-76
2022/05/22 07:51:20;;;;;;;8.70;8.23;;;;;;;21.87;37.00;92663.00;5026927;28;20266;-76
2022/05/22 07:53:46;;;;;;;8.82;8.25;;;;;;;21.99;37.75;92681.47;5027298;28;20318;-76
2022/05/22 07:56:13;;;;;;;7.50;7.20;;;;;;;22.13;37.40;92675.72;5027975;28;20243;-76
2022/05/22 07:58:39;;;;;;;8.80;8.30;;;;;;;22.65;37.43;92670.72;5025254;28;20191;-76
2022/05/22 08:01:04;;;;;;;11.77;10.82;;;;;;;22.99;38.12;92664.53;5027538;28;20243;-76
2022/05/22 08:03:30;;;;;;;8.85;8.25;;;;;;;22.87;38.04;92659.38;5026041;28;20219;-76
2022/05/22 08:05:56;;;;;;;8.88;8.38;;;;;;;22.94;38.47;92666.72;5027724;28;20240;-76
2022/05/22 08:08:23;;;;;;;8.35;7.85;;;;;;;23.36;36.87;92659.50;5026605;28;20196;-76
2022/05/22 08:10:48;;;;;;;8.32;7.93;;;;;;;23.21;37.21;92650.47;5027211;28;20243;-76
2022/05/22 08:13:14;;;;;;;8.20;7.80;;;;;;;22.41;38.34;92649.72;5027965;28;20181;-76
2022/05/22 08:15:41;;;;;;;8.25;7.80;;;;;;;22.16;41.08;92633.22;5027354;28;20224;-76
2022/05/22 08:18:08;;;;;;;8.18;7.72;;;;;;;21.94;41.07;92643.78;5025005;28;20200;-76
2022/05/22 08:20:36;;;;;;;7.72;7.28;;;;;;;22.11;41.28;92636.19;5028966;28;20228;-76
2022/05/22 08:23:06;;;;;;;8.13;7.72;;;;;;;21.81;42.62;92627.16;5028466;28;20202;-76
2022/05/22 08:25:32;;;;;;;8.93;8.23;;;;;;;21.96;43.44;92622.94;5028156;28;20264;-76
2022/05/22 08:27:58;;;;;;;8.73;8.18;;;;;;;22.02;43.96;92627.59;5028264;28;20197;-76
2022/05/22 08:30:26;;;;;;;8.00;7.50;;;;;;;21.93;43.68;92619.06;5027636;28;20232;-76
2022/05/22 08:32:52;;;;;;;8.00;7.60;;;;;;;22.30;43.20;92616.81;5028125;28;20201;-76
2022/05/22 08:35:22;;;;;;;7.82;7.43;;;;;;;22.37;42.73;92611.59;5028513;28;20317;-76
2022/05/22 08:37:47;;;;;;;7.60;7.22;;;;;;;22.76;43.21;92602.50;5029062;28;20194;-76
2022/05/22 08:40:15;;;;;;;7.72;7.00;;;;;;;21.76;42.95;92594.78;5026588;28;21740;-76
2022/05/22 08:42:48;;;;;;;8.38;7.30;;;;;;;22.13;41.93;92595.94;5027276;28;20177;-76
2022/05/22 08:45:18;;;;;;;8.18;7.60;;;;;;;22.12;41.50;92605.00;5028113;28;20271;-76
2022/05/22 08:48:09;;;;;;;8.70;7.90;;;;;;;22.12;41.57;92605.78;5027888;28;20198;-75
2022/05/22 08:50:36;;;;;;;8.15;7.60;;;;;;;22.39;39.79;92592.63;5017990;28;20255;-76
2022/05/22 08:53:23;;;;;;;7.13;6.82;;;;;;;22.36;41.39;92596.78;5031657;28;20187;-76
2022/05/22 08:58:57;;;;;;;8.85;7.30;;;;;;;22.67;42.09;92588.66;5032209;28;20225;-76
2022/05/22 09:01:39;;;;;;;7.70;7.30;;;;;;;22.49;42.75;92598.16;5031327;28;20241;-76
2022/05/22 09:04:33;;;;;;;8.20;7.80;;;;;;;22.20;43.83;92598.72;5031387;28;20293;-76
2022/05/22 09:07:04;;;;;;;7.75;7.35;;;;;;;21.56;44.70;92609.84;5031912;28;20234;-76
2022/05/22 09:09:32;;;;;;;7.82;7.32;;;;;;;21.83;44.52;92598.34;5032810;28;20189;-76
2022/05/22 09:12:21;;;;;;;7.40;6.90;;;;;;;21.35;45.82;92592.66;5032415;28;20226;-76
2022/05/22 09:15:02;;;;;;;8.75;8.25;;;;;;;21.15;45.93;92596.38;5031920;28;20193;-76
2022/05/22 09:17:33;;;;;;;7.93;7.55;;;;;;;21.08;47.26;92594.31;5031995;28;20240;-76
2022/05/22 09:20:04;;;;;;;7.82;7.43;;;;;;;21.44;45.12;92603.88;5032372;28;20218;-76
2022/05/22 09:22:49;;;;;;;8.13;7.63;;;;;;;21.28;45.39;92603.91;5032478;28;20348;-76
2022/05/22 09:25:45;;;;;;;8.18;7.78;;;;;;;21.37;45.76;92604.47;5031329;28;20245;-76
2022/05/22 09:28:17;;;;;;;8.63;7.93;;;;;;;21.46;44.66;92594.47;5031889;28;20194;-76
2022/05/22 09:31:03;;;;;;;7.93;7.22;;;;;;;21.18;45.30;92603.66;5032204;28;20234;-76
2022/05/22 09:34:01;;;;;;;7.53;7.22;;;;;;;21.50;42.12;92594.53;5032558;28;20193;-75
2022/05/22 09:36:35;;;;;;;7.43;7.05;;;;;;;21.93;40.64;92581.84;5029591;28;20241;-76
2022/05/22 09:39:38;;;;;;;7.32;7.03;;;;;;;21.83;39.26;92581.63;5030989;28;20221;-76
2022/05/22 09:42:15;;;;;;;7.68;7.38;;;;;;;21.70;39.63;92575.63;5031094;28;20374;-76
2022/05/22 09:45:08;;;;;;;7.13;6.72;;;;;;;22.13;39.01;92579.97;5031004;28;20220;-76
2022/05/22 09:47:58;;;;;;;7.95;7.38;;;;;;;22.36;41.10;92578.16;5029594;28;20214;-81
2022/05/22 09:50:46;;;;;;;7.60;7.10;;;;;;;22.59;39.66;92564.91;5031864;28;20291;-78
2022/05/22 09:53:40;;;;;;;9.95;9.35;;;;;;;23.18;38.76;92587.25;5030718;28;20201;-77
2022/05/22 09:56:34;;;;;;;7.00;6.65;;;;;;;22.75;39.06;92558.38;5030265;28;20243;-79
2022/05/22 09:59:16;;;;;;;7.53;7.22;;;;;;;22.50;38.12;92562.44;5031286;28;20192;-78
2022/05/22 10:01:45;;;;;;;7.95;7.25;;;;;;;21.72;39.79;92551.34;5030073;28;20228;-78
2022/05/22 10:04:44;;;;;;;7.47;7.15;;;;;;;22.05;40.46;92567.66;5028229;28;20223;-78
2022/05/22 10:07:48;;;;;;;7.50;7.20;;;;;;;22.17;41.23;92546.22;5028614;28;20259;-81
2022/05/22 10:10:32;;;;;;;7.50;7.20;;;;;;;22.20;39.47;92548.19;5053753;28;20248;-78
2022/05/22 10:13:32;;;;;;;7.47;7.07;;;;;;;22.57;39.43;92546.63;5028644;28;20216;-79
2022/05/22 10:16:20;;;;;;;7.78;7.43;;;;;;;22.73;39.54;92544.63;5029344;28;20370;-77
2022/05/22 10:18:49;;;;;;;7.07;6.78;;;;;;;23.20;40.76;92550.38;5028975;28;20228;-78
2022/05/22 10:21:24;;;;;;;7.47;7.15;;;;;;;23.39;39.54;92547.63;5030044;28;20258;-79
2022/05/22 10:24:26;;;;;;;6.60;6.30;;;;;;;23.95;38.57;92549.56;5052288;28;20217;-78
2022/05/22 10:27:02;;;;;;;8.20;7.80;;;;;;;23.63;38.67;92552.56;5028082;28;20314;-76
2022/05/22 10:29:59;;;;;;;7.95;7.50;;;;;;;23.35;39.20;92544.16;5029452;28;20200;-74
2022/05/22 10:32:33;;;;;;;7.65;7.30;;;;;;;23.13;38.42;92542.25;5029409;28;20213;-75
2022/05/22 10:35:27;;;;;;;7.82;7.38;;;;;;;23.23;39.81;92531.00;5030681;28;20197;-75
2022/05/22 10:38:03;;;;;;;8.32;7.93;;;;;;;22.96;39.66;92529.44;5026762;28;20280;-75
2022/05/22 10:42:44;;;;;;;8.35;7.95;;;;;;;23.01;39.27;92528.34;5028729;28;20275;-75
2022/05/22 10:43:14;;;;;;;7.65;7.22;;;;;;;23.31;39.23;92523.91;5028714;28;20216;-75
2022/05/22 10:45:40;;;;;;;8.13;7.70;;;;;;;23.52;38.53;92529.53;5028467;28;20277;-75
2022/05/22 10:48:19;;;;;;;7.60;7.10;;;;;;;23.14;41.62;92527.84;5030020;28;20292;-74
2022/05/22 10:51:02;;;;;;;7.90;7.50;;;;;;;22.84;40.25;92528.84;5029344;28;20337;-75
2022/05/22 10:53:38;;;;;;;7.88;7.38;;;;;;;22.29;40.51;92524.78;5029276;28;20220;-75
2022/05/22 10:56:26;;;;;;;7.82;7.43;;;;;;;22.65;41.22;92520.91;5027261;28;20303;-75
2022/05/22 10:58:58;;;;;;;8.30;7.80;;;;;;;22.99;40.85;92526.06;5057238;28;20213;-75
2022/05/22 11:01:28;;;;;;;7.97;7.57;;;;;;;23.01;40.14;92517.72;5028472;28;20253;-75
2022/05/22 11:04:15;;;;;;;8.55;8.05;;;;;;;23.16;40.37;92514.91;5030463;28;20225;-74
2022/05/22 11:06:55;;;;;;;7.43;7.13;;;;;;;23.36;41.49;92527.03;5028071;28;20283;-75
2022/05/22 11:09:26;;;;;;;8.57;7.97;;;;;;;23.26;40.23;92524.22;5027736;28;20219;-74
2022/05/22 11:11:52;;;;;;;7.60;7.20;;;;;;;23.32;41.09;92515.56;5028302;28;20213;-75
2022/05/22 11:14:21;;;;;;;7.97;7.50;;;;;;;23.24;39.09;92521.09;5028099;28;20238;-74
2022/05/22 11:16:47;;;;;;;8.40;7.90;;;;;;;23.37;40.93;92501.94;5029328;28;20232;-75
2022/05/22 11:19:24;;;;;;;7.63;7.32;;;;;;;23.25;40.58;92512.03;5029013;28;20245;-73
2022/05/22 11:22:29;;;;;;;7.88;7.47;;;;;;;23.47;41.22;92503.22;5029542;28;20237;-75
2022/05/22 11:25:34;;;;;;;7.80;7.40;;;;;;;23.59;42.54;92508.31;5027802;28;20304;-75
2022/05/22 11:28:37;;;;;;;6.80;6.50;;;;;;;23.34;42.37;92500.00;5036089;28;20231;-75
2022/05/22 11:31:14;;;;;;;8.07;7.35;;;;;;;23.37;42.60;92493.94;5021339;28;20265;-75
2022/05/22 11:34:18;;;;;;;7.22;6.93;;;;;;;23.39;43.20;92491.66;5029766;28;20240;-76
2022/05/22 11:36:44;;;;;;;7.78;7.38;;;;;;;23.30;42.55;92477.84;5029778;28;20276;-75
2022/05/22 11:39:28;;;;;;;7.72;7.32;;;;;;;23.37;43.32;92475.28;5028487;28;20196;-75
2022/05/22 11:42:00;;;;;;;8.00;7.60;;;;;;;23.34;42.03;92472.56;5027954;28;20241;-75
2022/05/22 11:44:26;;;;;;;8.85;8.02;;;;;;;23.61;42.82;92469.50;5028544;28;20207;-76
2022/05/22 11:47:06;;;;;;;7.80;7.30;;;;;;;23.49;43.54;92463.63;5027912;28;20425;-74
2022/05/22 11:49:46;;;;;;;8.43;7.82;;;;;;;23.40;42.74;92466.56;5028509;28;20186;-76
2022/05/22 11:52:55;;;;;;;8.20;7.70;;;;;;;23.83;41.80;92475.13;5028897;28;20237;-75